Time;durP1;ratioP1;P1;durP2;ratioP2;P2;SDS_P1;SDS_P2;PMS_P1;PMS_P2;Temp;Humidity;BMP_temperature;BMP_pressure;BME280_temperature;BME280_humidity;BME280_pressure;Samples;Min_cycle;Max_cycle;Signal;HPM_P1;HPM_P2
2021/08/03 00:00:27;;;;;;;2.90;1.67;;;19.20;91.30;;;;;;5113422;27;20516;-65
2021/08/03 00:02:57;;;;;;;4.10;1.47;;;19.20;91.30;;;;;;5113934;27;20472;-65
2021/08/03 00:05:28;;;;;;;2.80;2.00;;;19.20;91.40;;;;;;5113465;27;20463;-65
2021/08/03 00:08:03;;;;;;;2.60;1.67;;;19.20;91.40;;;;;;5113840;27;20540;-65
2021/08/03 00:10:31;;;;;;;2.07;1.87;;;19.20;91.50;;;;;;5112874;27;20535;-65
2021/08/03 00:13:01;;;;;;;3.07;1.80;;;19.10;91.50;;;;;;5113790;27;20529;-65
2021/08/03 00:15:29;;;;;;;2.20;1.70;;;19.10;91.60;;;;;;5113250;27;20509;-64
2021/08/03 00:17:57;;;;;;;2.67;2.23;;;19.10;91.70;;;;;;5113353;27;20537;-65
2021/08/03 00:20:27;;;;;;;2.40;1.60;;;19.10;91.70;;;;;;5119956;27;20519;-65
2021/08/03 00:23:00;;;;;;;1.53;1.40;;;19.10;91.80;;;;;;5134111;27;20467;-65
2021/08/03 00:25:29;;;;;;;2.17;1.90;;;19.10;91.70;;;;;;5133676;27;20474;-65
2021/08/03 00:27:57;;;;;;;3.17;2.00;;;19.00;91.70;;;;;;5134243;27;20463;-65
2021/08/03 00:30:25;;;;;;;1.67;1.57;;;19.10;91.70;;;;;;5133556;27;20802;-64
2021/08/03 00:32:53;;;;;;;2.00;1.70;;;19.00;91.70;;;;;;5134130;27;20471;-65
2021/08/03 00:35:21;;;;;;;2.67;2.00;;;19.00;91.80;;;;;;5133574;27;20463;-63
2021/08/03 00:37:48;;;;;;;2.10;1.30;;;19.00;91.80;;;;;;5133704;27;20464;-64
2021/08/03 00:40:16;;;;;;;3.37;1.83;;;19.00;91.80;;;;;;5133484;27;21005;-65
2021/08/03 00:42:44;;;;;;;1.63;1.50;;;19.00;91.80;;;;;;5133705;27;20478;-64
2021/08/03 00:45:12;;;;;;;2.80;1.80;;;19.00;91.90;;;;;;5133033;27;21010;-64
2021/08/03 00:47:39;;;;;;;1.57;1.43;;;18.90;91.90;;;;;;5133663;27;20460;-64
2021/08/03 00:50:07;;;;;;;2.17;1.67;;;19.00;92.00;;;;;;5125975;27;20528;-64
2021/08/03 00:52:34;;;;;;;2.53;1.83;;;19.00;92.00;;;;;;5112833;27;20464;-65
2021/08/03 00:55:02;;;;;;;1.70;1.30;;;19.00;92.00;;;;;;5113271;27;20468;-65
2021/08/03 00:57:29;;;;;;;1.90;1.70;;;19.00;92.10;;;;;;5112547;27;20461;-64
2021/08/03 00:59:58;;;;;;;1.63;1.53;;;19.00;92.10;;;;;;5113022;28;20521;-65
2021/08/03 01:02:25;;;;;;;1.60;1.50;;;18.90;92.10;;;;;;5112922;28;20969;-65
2021/08/03 01:04:52;;;;;;;1.73;1.50;;;18.90;92.10;;;;;;5112985;28;20536;-64
2021/08/03 01:07:28;;;;;;;1.93;1.70;;;18.90;92.10;;;;;;5112296;28;20475;-64
2021/08/03 01:10:08;;;;;;;1.60;1.50;;;18.90;92.10;;;;;;5113069;28;20531;-64
2021/08/03 01:12:47;;;;;;;2.80;2.10;;;18.90;92.10;;;;;;5112670;28;20532;-64
2021/08/03 01:15:17;;;;;;;1.97;1.70;;;18.90;92.20;;;;;;5112512;28;20470;-64
2021/08/03 01:17:58;;;;;;;4.50;1.67;;;18.90;92.20;;;;;;5113091;28;20468;-64
2021/08/03 01:20:29;;;;;;;2.70;1.97;;;18.90;92.30;;;;;;5112718;27;20508;-64
2021/08/03 01:23:27;;;;;;;2.37;1.87;;;18.90;92.40;;;;;;5113139;27;20501;-65
2021/08/03 01:26:05;;;;;;;2.00;1.50;;;18.90;92.40;;;;;;5112960;27;20841;-64
2021/08/03 01:28:36;;;;;;;2.60;1.90;;;18.80;92.50;;;;;;5112864;27;20852;-65
2021/08/03 01:31:06;;;;;;;1.70;1.60;;;18.80;92.60;;;;;;5112355;27;20541;-64
2021/08/03 01:33:36;;;;;;;2.47;2.27;;;18.80;92.70;;;;;;5115250;27;20486;-64
2021/08/03 01:36:03;;;;;;;2.57;1.93;;;18.70;92.70;;;;;;5116600;27;20533;-64
2021/08/03 01:38:32;;;;;;;3.33;2.07;;;18.70;92.80;;;;;;5116365;27;20468;-64
2021/08/03 01:41:02;;;;;;;2.10;1.50;;;18.70;92.90;;;;;;5116473;27;20856;-64
2021/08/03 01:43:31;;;;;;;2.10;1.47;;;18.70;93.00;;;;;;5116568;27;20468;-65
2021/08/03 01:46:00;;;;;;;2.23;2.00;;;18.70;93.10;;;;;;5115947;27;20460;-63
2021/08/03 01:48:28;;;;;;;5.00;2.70;;;18.70;93.10;;;;;;5114662;27;20475;-64
2021/08/03 01:50:55;;;;;;;3.63;3.27;;;18.70;93.20;;;;;;5115548;27;20464;-64
2021/08/03 01:53:26;;;;;;;3.50;3.13;;;18.70;93.10;;;;;;5116437;27;20613;-64
2021/08/03 01:55:55;;;;;;;3.37;3.07;;;18.70;93.20;;;;;;5116586;27;20849;-64
2021/08/03 01:58:23;;;;;;;3.30;3.00;;;18.70;93.20;;;;;;5115874;27;20502;-65
2021/08/03 02:00:51;;;;;;;5.20;3.33;;;18.60;93.20;;;;;;5114539;27;20471;-65
2021/08/03 02:03:21;;;;;;;6.50;3.50;;;18.60;93.30;;;;;;5114096;27;20524;-65
2021/08/03 02:05:49;;;;;;;4.90;3.67;;;18.60;93.30;;;;;;5114497;27;20544;-65
2021/08/03 02:08:18;;;;;;;3.00;2.80;;;18.60;93.30;;;;;;5113938;27;20965;-65
2021/08/03 02:10:47;;;;;;;4.00;3.60;;;18.60;93.40;;;;;;5115720;27;20472;-64
2021/08/03 02:13:15;;;;;;;3.80;3.50;;;18.60;93.50;;;;;;5115929;27;20468;-65
2021/08/03 02:15:43;;;;;;;3.87;3.57;;;18.60;93.60;;;;;;5115647;27;20509;-65
2021/08/03 02:18:10;;;;;;;5.87;3.93;;;18.50;93.60;;;;;;5115378;27;20463;-65
2021/08/03 02:20:42;;;;;;;4.50;4.10;;;18.50;93.70;;;;;;5115800;27;20461;-65
2021/08/03 02:23:09;;;;;;;4.47;4.07;;;18.50;93.70;;;;;;5115398;27;20520;-65
2021/08/03 02:25:36;;;;;;;5.10;4.27;;;18.50;93.80;;;;;;5115977;27;20475;-65
2021/08/03 02:28:04;;;;;;;3.97;3.20;;;18.50;93.90;;;;;;5115479;27;20520;-64
2021/08/03 02:30:31;;;;;;;3.67;3.37;;;18.50;93.90;;;;;;5115634;27;20472;-65
2021/08/03 02:33:07;;;;;;;4.13;3.20;;;18.40;93.90;;;;;;5115783;27;20494;-65
2021/08/03 02:35:41;;;;;;;3.40;3.20;;;18.40;94.00;;;;;;5115461;27;20544;-66
2021/08/03 02:38:11;;;;;;;3.20;2.80;;;18.40;94.10;;;;;;5115339;27;20637;-65
2021/08/03 02:40:40;;;;;;;4.73;3.77;;;18.40;94.20;;;;;;5115349;27;20840;-64
2021/08/03 02:43:07;;;;;;;2.97;2.67;;;18.40;94.30;;;;;;5115464;27;20540;-65
2021/08/03 02:45:37;;;;;;;3.47;3.20;;;18.40;94.30;;;;;;5115017;27;20543;-65
2021/08/03 02:48:11;;;;;;;6.63;4.33;;;18.40;94.40;;;;;;5115169;27;20475;-65
2021/08/03 02:50:42;;;;;;;3.37;3.10;;;18.40;95.30;;;;;;5115145;27;20955;-65
2021/08/03 02:53:14;;;;;;;3.70;3.30;;;18.40;94.90;;;;;;5115447;27;20460;-65
2021/08/03 02:55:49;;;;;;;5.20;2.97;;;18.30;94.80;;;;;;5114874;27;20462;-65
2021/08/03 02:58:23;;;;;;;2.93;2.63;;;18.30;94.80;;;;;;5115039;27;20471;-65
2021/08/03 03:00:51;;;;;;;5.53;2.60;;;18.30;94.80;;;;;;5114815;27;20547;-65
2021/08/03 03:03:22;;;;;;;2.67;2.37;;;18.20;94.80;;;;;;5129495;27;20886;-65
2021/08/03 03:05:55;;;;;;;2.40;2.20;;;18.20;94.90;;;;;;5135164;27;20463;-65
2021/08/03 03:08:26;;;;;;;2.17;2.00;;;18.20;94.90;;;;;;5135355;27;20956;-65
2021/08/03 03:10:56;;;;;;;4.53;2.50;;;18.20;94.90;;;;;;5135373;27;20448;-65
2021/08/03 03:13:27;;;;;;;2.23;2.03;;;18.20;95.00;;;;;;5135417;27;20466;-65
2021/08/03 03:15:55;;;;;;;2.60;2.33;;;18.20;95.10;;;;;;5135062;27;20455;-64
2021/08/03 03:18:22;;;;;;;3.70;2.30;;;18.20;95.10;;;;;;5135134;27;20471;-65
2021/08/03 03:20:53;;;;;;;2.43;1.73;;;18.20;95.10;;;;;;5135057;27;22632;-65
2021/08/03 03:23:23;;;;;;;4.57;1.80;;;18.20;95.20;;;;;;5135191;27;20477;-66
2021/08/03 03:25:51;;;;;;;2.07;1.70;;;18.10;95.20;;;;;;5134711;27;20464;-64
2021/08/03 03:28:21;;;;;;;1.87;1.60;;;18.10;95.40;;;;;;5135082;27;20530;-65
2021/08/03 03:30:50;;;;;;;3.97;2.30;;;18.10;95.50;;;;;;5134669;27;20480;-65
2021/08/03 03:33:18;;;;;;;2.10;1.90;;;18.10;95.60;;;;;;5134813;27;20510;-65
2021/08/03 03:35:47;;;;;;;2.13;1.83;;;18.10;95.70;;;;;;5134624;27;20473;-65
2021/08/03 03:38:18;;;;;;;2.43;2.23;;;18.10;95.80;;;;;;5134820;27;20466;-65
2021/08/03 03:40:46;;;;;;;1.90;1.70;;;18.10;95.90;;;;;;5134120;27;20466;-65
2021/08/03 03:43:15;;;;;;;3.73;2.10;;;18.10;96.00;;;;;;5134894;27;20522;-65
2021/08/03 03:45:44;;;;;;;2.70;1.93;;;18.10;96.40;;;;;;5134380;27;20529;-65
2021/08/03 03:48:13;;;;;;;2.50;2.30;;;18.10;96.30;;;;;;5134489;27;20782;-65
2021/08/03 03:50:46;;;;;;;1.93;1.73;;;18.10;96.30;;;;;;5134486;27;20467;-64
2021/08/03 03:53:18;;;;;;;2.70;1.90;;;18.10;96.30;;;;;;5134616;27;21020;-65
2021/08/03 03:55:51;;;;;;;2.67;1.50;;;18.10;96.50;;;;;;5133704;27;20536;-65
2021/08/03 03:58:19;;;;;;;4.60;1.80;;;18.10;96.60;;;;;;5127536;27;20483;-65
2021/08/03 04:00:48;;;;;;;2.17;1.97;;;18.10;96.60;;;;;;5095651;27;20475;-65
2021/08/03 04:03:17;;;;;;;2.03;1.70;;;18.10;96.70;;;;;;5109246;27;20598;-65
2021/08/03 04:05:46;;;;;;;2.33;2.13;;;18.20;96.80;;;;;;5113398;28;20852;-64
2021/08/03 04:08:13;;;;;;;2.83;1.50;;;18.20;96.80;;;;;;5113675;28;20472;-65
2021/08/03 04:10:42;;;;;;;2.10;1.90;;;18.20;96.80;;;;;;5103135;28;20526;-65
2021/08/03 04:13:10;;;;;;;1.77;1.67;;;18.20;96.80;;;;;;5106719;28;20469;-65
2021/08/03 04:15:37;;;;;;;1.90;1.70;;;18.20;96.90;;;;;;5103501;27;20476;-66
2021/08/03 04:18:04;;;;;;;2.17;1.97;;;18.20;96.90;;;;;;5113414;28;20471;-65
2021/08/03 04:20:32;;;;;;;2.40;1.90;;;18.20;96.90;;;;;;5102256;28;20986;-65
2021/08/03 04:22:59;;;;;;;4.90;2.83;;;18.30;97.00;;;;;;5106430;28;20949;-65
2021/08/03 04:25:26;;;;;;;2.30;1.93;;;18.30;97.00;;;;;;5104590;28;20529;-65
2021/08/03 04:27:55;;;;;;;3.23;2.57;;;18.30;97.00;;;;;;5098946;28;20472;-65
2021/08/03 04:30:22;;;;;;;2.30;1.83;;;18.40;97.10;;;;;;5101251;28;20861;-65
2021/08/03 04:32:49;;;;;;;3.67;2.30;;;18.40;97.10;;;;;;5111650;28;20484;-64
2021/08/03 04:35:16;;;;;;;2.53;2.00;;;18.40;97.10;;;;;;5113197;28;20470;-65
2021/08/03 04:37:44;;;;;;;2.63;2.43;;;18.50;97.10;;;;;;5099172;27;20478;-65
2021/08/03 04:40:13;;;;;;;2.37;2.07;;;18.40;97.10;;;;;;5100201;28;21011;-65
2021/08/03 04:42:40;;;;;;;4.03;2.50;;;18.50;97.10;;;;;;5106112;28;20531;-65
2021/08/03 04:45:10;;;;;;;2.43;2.23;;;18.50;97.00;;;;;;5105834;28;20481;-65
2021/08/03 04:47:41;;;;;;;3.73;2.00;;;18.50;97.00;;;;;;5098944;28;20501;-65
2021/08/03 04:50:10;;;;;;;2.90;2.03;;;18.50;97.00;;;;;;5099583;28;20469;-65
2021/08/03 04:52:37;;;;;;;2.20;2.00;;;18.60;97.00;;;;;;5112878;28;20520;-64
2021/08/03 04:55:05;;;;;;;4.07;2.43;;;18.60;97.00;;;;;;5099233;28;20468;-65
2021/08/03 04:57:32;;;;;;;2.30;2.10;;;18.60;97.10;;;;;;5105477;28;20582;-64
2021/08/03 05:00:02;;;;;;;3.77;1.67;;;18.60;97.10;;;;;;5102315;28;20459;-64
2021/08/03 05:02:30;;;;;;;4.97;4.00;;;18.60;97.20;;;;;;5109239;28;20469;-64
2021/08/03 05:04:57;;;;;;;2.20;2.00;;;18.70;97.20;;;;;;5102978;28;20625;-64
2021/08/03 05:07:24;;;;;;;3.47;2.63;;;18.70;97.30;;;;;;5109955;27;20481;-64
2021/08/03 05:09:51;;;;;;;3.63;2.40;;;18.70;97.20;;;;;;5116702;27;20818;-64
2021/08/03 05:12:18;;;;;;;5.80;2.47;;;18.70;97.30;;;;;;5103435;28;21006;-64
2021/08/03 05:14:45;;;;;;;2.13;1.93;;;18.80;97.30;;;;;;5105401;28;20784;-64
2021/08/03 05:17:11;;;;;;;3.50;2.53;;;18.80;97.60;;;;;;5110127;28;20542;-65
2021/08/03 05:19:40;;;;;;;4.50;2.77;;;18.90;97.20;;;;;;5107737;28;21010;-65
2021/08/03 05:22:07;;;;;;;5.57;3.30;;;19.00;97.10;;;;;;5103131;28;20460;-65
2021/08/03 05:24:34;;;;;;;2.40;2.20;;;19.00;97.20;;;;;;5104990;28;20479;-65
2021/08/03 05:27:01;;;;;;;4.07;2.50;;;18.90;97.10;;;;;;5109604;28;20487;-65
2021/08/03 05:29:28;;;;;;;4.57;2.40;;;19.00;97.10;;;;;;5108757;28;20852;-65
2021/08/03 05:31:55;;;;;;;3.70;2.63;;;19.00;97.00;;;;;;5102494;28;20478;-65
2021/08/03 05:34:22;;;;;;;3.00;2.53;;;19.10;97.10;;;;;;5104331;28;20466;-66
2021/08/03 05:36:50;;;;;;;3.40;2.60;;;19.10;97.10;;;;;;5115124;28;20529;-65
2021/08/03 05:39:17;;;;;;;2.43;2.23;;;19.10;97.10;;;;;;5103677;27;20889;-65
2021/08/03 05:41:44;;;;;;;3.00;2.37;;;19.20;97.10;;;;;;5109434;28;20473;-65
2021/08/03 05:44:11;;;;;;;2.87;2.37;;;19.20;97.00;;;;;;5109297;28;20467;-64
2021/08/03 05:46:38;;;;;;;2.40;2.17;;;19.20;97.00;;;;;;5102463;28;20473;-64
2021/08/03 05:49:05;;;;;;;5.30;2.87;;;19.30;97.00;;;;;;5102388;28;20854;-64
2021/08/03 05:51:32;;;;;;;5.27;2.33;;;19.30;96.80;;;;;;5102758;28;20472;-65
2021/08/03 05:54:00;;;;;;;2.30;2.10;;;19.40;96.70;;;;;;5115713;28;20469;-65
2021/08/03 05:56:27;;;;;;;5.33;3.40;;;19.40;96.70;;;;;;5102992;28;20467;-65
2021/08/03 05:58:54;;;;;;;3.80;2.97;;;19.40;96.70;;;;;;5106777;28;20528;-64
2021/08/03 06:01:21;;;;;;;3.20;2.70;;;19.40;96.80;;;;;;5116136;27;20524;-64
2021/08/03 06:03:48;;;;;;;3.27;2.30;;;19.50;96.80;;;;;;5114506;27;20966;-64
2021/08/03 06:06:17;;;;;;;6.10;3.20;;;19.50;96.80;;;;;;5103866;28;20474;-64
2021/08/03 06:08:44;;;;;;;6.70;3.40;;;19.60;96.80;;;;;;5115382;27;20484;-65
2021/08/03 06:11:17;;;;;;;5.03;3.00;;;19.60;96.60;;;;;;5107223;28;20465;-65
2021/08/03 06:13:53;;;;;;;4.13;2.50;;;19.70;96.60;;;;;;5108750;28;20547;-64
2021/08/03 06:16:20;;;;;;;7.20;2.53;;;19.80;96.60;;;;;;5106812;28;20460;-65
2021/08/03 06:18:49;;;;;;;5.40;3.90;;;19.80;96.60;;;;;;5100982;27;21008;-65
2021/08/03 06:21:18;;;;;;;5.33;4.20;;;19.80;96.50;;;;;;5103960;27;20472;-65
2021/08/03 06:23:46;;;;;;;5.77;3.30;;;19.80;96.50;;;;;;5108653;28;20465;-66
2021/08/03 06:26:17;;;;;;;2.30;2.10;;;19.80;96.60;;;;;;5107582;28;20480;-65
2021/08/03 06:28:45;;;;;;;4.03;2.77;;;19.80;96.60;;;;;;5101526;28;20591;-65
2021/08/03 06:31:12;;;;;;;3.30;2.90;;;19.80;96.60;;;;;;5102145;28;20849;-65
2021/08/03 06:33:39;;;;;;;5.20;2.60;;;19.80;96.70;;;;;;5101825;28;20968;-64
2021/08/03 06:36:06;;;;;;;2.80;2.60;;;19.80;96.70;;;;;;5114989;27;20463;-65
2021/08/03 06:38:33;;;;;;;5.83;2.97;;;19.80;96.70;;;;;;5102087;28;20867;-65
2021/08/03 06:41:04;;;;;;;9.07;2.80;;;19.80;96.70;;;;;;5101273;28;20853;-65
2021/08/03 06:43:34;;;;;;;4.67;2.50;;;19.90;96.70;;;;;;5107678;28;20477;-65
2021/08/03 06:46:04;;;;;;;7.80;2.43;;;19.90;96.70;;;;;;5107812;27;20498;-65
2021/08/03 06:48:33;;;;;;;3.27;2.63;;;19.90;96.80;;;;;;5104165;28;20541;-65
2021/08/03 06:51:04;;;;;;;3.50;2.10;;;20.00;97.20;;;;;;5101115;28;20477;-65
2021/08/03 06:53:32;;;;;;;2.50;2.00;;;20.00;96.70;;;;;;5104982;27;20466;-65
2021/08/03 06:56:02;;;;;;;2.60;1.73;;;20.00;96.70;;;;;;5108007;28;20543;-64
2021/08/03 06:58:38;;;;;;;2.27;2.07;;;20.00;96.60;;;;;;5099859;28;20474;-64
2021/08/03 07:01:06;;;;;;;3.40;1.80;;;20.10;96.70;;;;;;5100601;27;20555;-65
2021/08/03 07:03:37;;;;;;;4.67;1.97;;;20.00;96.70;;;;;;5115130;28;20965;-65
2021/08/03 07:06:06;;;;;;;1.97;1.70;;;20.00;96.80;;;;;;5101007;28;20962;-65
2021/08/03 07:08:34;;;;;;;2.63;2.03;;;20.00;96.90;;;;;;5114798;27;20571;-65
2021/08/03 07:11:01;;;;;;;4.50;3.30;;;20.00;97.10;;;;;;5106946;27;20547;-65
2021/08/03 07:13:29;;;;;;;2.93;2.70;;;20.00;97.20;;;;;;5108364;28;20496;-65
2021/08/03 07:15:58;;;;;;;7.10;5.07;;;20.00;97.40;;;;;;5101962;28;20468;-65
2021/08/03 07:18:26;;;;;;;3.90;3.30;;;19.90;97.70;;;;;;5100758;28;20963;-65
2021/08/03 07:20:57;;;;;;;4.37;3.00;;;19.90;97.90;;;;;;5105750;28;21019;-65
2021/08/03 07:23:24;;;;;;;2.73;2.47;;;19.90;98.10;;;;;;5108004;28;21041;-65
2021/08/03 07:25:53;;;;;;;6.20;2.50;;;19.90;98.30;;;;;;5103365;28;20525;-64
2021/08/03 07:28:20;;;;;;;2.60;2.40;;;20.00;98.30;;;;;;5100633;28;20796;-65
2021/08/03 07:30:48;;;;;;;5.50;3.00;;;20.00;98.30;;;;;;5103692;28;20473;-65
2021/08/03 07:33:17;;;;;;;2.27;1.80;;;19.90;98.30;;;;;;5107277;28;20457;-64
2021/08/03 07:35:45;;;;;;;4.57;3.10;;;20.00;98.40;;;;;;5104844;28;20780;-65
2021/08/03 07:38:13;;;;;;;3.67;2.33;;;20.10;98.20;;;;;;5100139;28;20504;-65
2021/08/03 07:40:41;;;;;;;2.37;2.17;;;20.10;98.50;;;;;;5102884;28;21374;-65
2021/08/03 07:43:08;;;;;;;3.00;2.10;;;20.20;97.90;;;;;;5106887;28;20485;-65
2021/08/03 07:45:37;;;;;;;2.43;2.10;;;20.20;98.10;;;;;;5105525;27;20521;-65
2021/08/03 07:48:05;;;;;;;3.63;2.90;;;20.30;97.70;;;;;;5099880;28;20560;-65
2021/08/03 07:50:33;;;;;;;4.23;2.90;;;20.40;97.50;;;;;;5101709;28;20526;-65
2021/08/03 07:53:01;;;;;;;4.17;2.90;;;20.50;97.30;;;;;;5106860;28;20526;-65
2021/08/03 07:55:29;;;;;;;4.33;2.77;;;20.70;97.20;;;;;;5106720;28;20468;-65
2021/08/03 07:57:56;;;;;;;2.70;2.27;;;20.90;97.10;;;;;;5096617;28;20468;-65
2021/08/03 08:00:23;;;;;;;2.93;2.63;;;21.10;96.90;;;;;;5097597;28;20781;-65
2021/08/03 08:02:50;;;;;;;3.47;3.17;;;21.20;96.60;;;;;;5100374;28;20540;-65
2021/08/03 08:05:17;;;;;;;4.27;2.80;;;21.40;96.10;;;;;;5112923;28;20461;-65
2021/08/03 08:07:45;;;;;;;2.83;1.97;;;21.60;95.40;;;;;;5108820;27;20465;-65
2021/08/03 08:10:12;;;;;;;6.53;2.83;;;21.70;94.60;;;;;;5113074;27;20950;-65
2021/08/03 08:12:39;;;;;;;3.00;2.33;;;21.80;94.40;;;;;;5100692;28;20468;-64
2021/08/03 08:15:06;;;;;;;4.17;2.93;;;21.90;94.30;;;;;;5099269;28;20538;-65
2021/08/03 08:17:33;;;;;;;5.27;2.60;;;22.00;94.00;;;;;;5106138;28;20465;-65
2021/08/03 08:20:00;;;;;;;4.13;2.10;;;22.00;94.10;;;;;;5106101;28;20476;-65
2021/08/03 08:22:27;;;;;;;4.03;1.93;;;22.10;94.00;;;;;;5100952;28;20468;-65
2021/08/03 08:24:55;;;;;;;3.20;1.73;;;22.20;93.50;;;;;;5099480;28;20507;-65
2021/08/03 08:27:22;;;;;;;3.83;2.37;;;22.20;93.50;;;;;;5104886;28;20465;-65
2021/08/03 08:29:49;;;;;;;2.70;1.60;;;22.30;93.30;;;;;;5106463;27;20476;-65
2021/08/03 08:32:16;;;;;;;3.80;2.30;;;22.30;93.10;;;;;;5101690;28;20461;-65
2021/08/03 08:34:43;;;;;;;3.27;2.80;;;22.30;93.10;;;;;;5099892;28;20502;-65
2021/08/03 08:37:10;;;;;;;2.20;2.10;;;22.30;93.10;;;;;;5103172;27;20930;-64
2021/08/03 08:39:37;;;;;;;4.40;2.20;;;22.30;93.00;;;;;;5108865;28;20522;-65
2021/08/03 08:42:05;;;;;;;1.90;1.43;;;22.30;92.90;;;;;;5102976;28;20469;-65
2021/08/03 08:44:32;;;;;;;3.20;2.53;;;22.30;92.70;;;;;;5106509;28;20465;-65
2021/08/03 08:47:00;;;;;;;2.30;2.17;;;22.30;92.80;;;;;;5102065;28;20521;-65
2021/08/03 08:49:28;;;;;;;3.73;2.83;;;22.30;92.80;;;;;;5099344;28;20464;-65
2021/08/03 08:51:57;;;;;;;4.17;2.40;;;22.30;92.90;;;;;;5102489;28;20546;-65
2021/08/03 08:54:24;;;;;;;3.83;2.33;;;22.30;92.90;;;;;;5106157;28;20540;-65
2021/08/03 08:56:51;;;;;;;2.73;2.03;;;22.30;93.00;;;;;;5103955;28;20468;-65
2021/08/03 08:59:19;;;;;;;3.17;2.20;;;22.20;92.90;;;;;;5102784;28;20556;-66
2021/08/03 09:01:46;;;;;;;3.70;1.87;;;22.20;93.10;;;;;;5100147;28;20470;-65
2021/08/03 09:04:13;;;;;;;3.40;1.90;;;22.30;93.20;;;;;;5111969;28;20469;-66
2021/08/03 09:06:41;;;;;;;3.30;1.70;;;22.30;93.00;;;;;;5106714;27;20525;-66
2021/08/03 09:09:16;;;;;;;4.50;1.77;;;22.20;92.70;;;;;;5112271;28;20555;-65
2021/08/03 09:11:47;;;;;;;2.07;1.87;;;22.30;92.80;;;;;;5099329;28;20473;-66
2021/08/03 09:14:15;;;;;;;1.50;1.40;;;22.30;92.80;;;;;;5103793;28;20540;-65
2021/08/03 09:16:47;;;;;;;1.87;1.60;;;22.20;92.90;;;;;;5106251;28;20611;-65
2021/08/03 09:19:32;;;;;;;4.47;1.97;;;22.30;92.70;;;;;;5101595;28;20469;-65
2021/08/03 09:22:14;;;;;;;2.57;2.37;;;22.30;92.50;;;;;;5098841;28;20799;-65
2021/08/03 09:24:42;;;;;;;2.50;1.60;;;22.40;92.50;;;;;;5099356;28;20466;-64
2021/08/03 09:27:09;;;;;;;3.27;1.67;;;22.40;92.10;;;;;;5104219;28;20484;-65
2021/08/03 09:29:47;;;;;;;4.23;2.10;;;22.30;91.70;;;;;;5105749;28;20477;-65
2021/08/03 09:32:15;;;;;;;5.33;3.30;;;22.40;92.00;;;;;;5101654;28;20960;-66
2021/08/03 09:34:42;;;;;;;3.00;2.80;;;22.60;91.80;;;;;;5099003;28;20533;-66
2021/08/03 09:37:09;;;;;;;2.60;1.90;;;22.60;91.60;;;;;;5102426;28;20524;-65
2021/08/03 09:39:38;;;;;;;2.60;2.20;;;22.60;91.50;;;;;;5105996;28;20857;-65
2021/08/03 09:42:07;;;;;;;2.73;2.30;;;22.80;91.10;;;;;;5101842;28;20480;-64
2021/08/03 09:44:34;;;;;;;5.57;5.07;;;22.90;91.10;;;;;;5098609;28;20529;-65
2021/08/03 09:47:01;;;;;;;2.93;2.63;;;22.90;91.10;;;;;;5101572;28;20469;-66
2021/08/03 09:49:37;;;;;;;2.60;2.40;;;23.00;91.20;;;;;;5105716;28;20465;-65
2021/08/03 09:52:06;;;;;;;3.10;2.07;;;23.00;91.10;;;;;;5103787;28;20464;-66
2021/08/03 09:54:34;;;;;;;2.13;1.93;;;23.00;91.00;;;;;;5101258;28;20984;-65
2021/08/03 09:57:02;;;;;;;5.30;2.00;;;23.10;90.30;;;;;;5103396;28;20540;-65
2021/08/03 09:59:38;;;;;;;1.77;1.67;;;23.10;90.30;;;;;;5109401;28;20502;-65
2021/08/03 10:02:05;;;;;;;2.80;1.77;;;23.10;90.00;;;;;;5101848;27;20873;-64
2021/08/03 10:04:33;;;;;;;1.97;1.70;;;23.10;88.50;;;;;;5116311;28;20469;-66
2021/08/03 10:07:02;;;;;;;2.57;1.63;;;23.10;88.70;;;;;;5108784;27;20907;-66
2021/08/03 10:09:30;;;;;;;1.80;1.53;;;23.00;89.00;;;;;;5115814;27;20537;-65
2021/08/03 10:11:57;;;;;;;4.27;2.53;;;23.00;89.40;;;;;;5102097;28;20468;-66
2021/08/03 10:14:25;;;;;;;4.37;3.03;;;23.00;88.90;;;;;;5105435;28;20796;-66
2021/08/03 10:16:53;;;;;;;2.77;2.53;;;23.00;89.30;;;;;;5109113;28;20469;-65
2021/08/03 10:19:23;;;;;;;3.23;2.30;;;22.90;89.80;;;;;;5105663;27;20522;-65
2021/08/03 10:22:00;;;;;;;3.10;2.67;;;23.00;89.10;;;;;;5101903;28;20976;-65
2021/08/03 10:24:32;;;;;;;2.60;2.40;;;23.00;88.10;;;;;;5102992;28;21043;-65
2021/08/03 10:27:15;;;;;;;3.60;2.47;;;23.00;87.50;;;;;;5109345;28;20465;-66
2021/08/03 10:29:49;;;;;;;3.00;2.40;;;23.10;86.90;;;;;;5107031;27;20471;-65
2021/08/03 10:32:41;;;;;;;2.53;1.30;;;23.20;85.40;;;;;;5104984;28;20453;-66
2021/08/03 10:35:16;;;;;;;2.10;1.50;;;23.20;83.80;;;;;;5101632;28;20469;-65
2021/08/03 10:38:12;;;;;;;2.40;2.00;;;23.20;83.60;;;;;;5101725;28;20974;-66
2021/08/03 10:41:19;;;;;;;2.10;1.83;;;23.30;84.10;;;;;;5103619;28;20486;-66
2021/08/03 10:43:54;;;;;;;2.30;1.60;;;23.30;84.20;;;;;;5105243;28;20467;-66
2021/08/03 10:46:39;;;;;;;2.50;1.57;;;23.40;84.30;;;;;;5109998;28;20496;-65
2021/08/03 10:49:07;;;;;;;1.60;1.50;;;23.50;84.40;;;;;;5108292;28;21586;-65
2021/08/03 10:51:45;;;;;;;4.00;3.20;;;23.50;84.00;;;;;;5102799;28;20532;-65
2021/08/03 10:54:16;;;;;;;5.97;5.43;;;23.50;83.00;;;;;;5101125;28;21063;-66
2021/08/03 10:57:21;;;;;;;6.50;3.70;;;23.50;83.10;;;;;;5104777;28;20465;-64
2021/08/03 11:00:04;;;;;;;3.10;2.70;;;23.50;82.80;;;;;;5112909;28;20527;-65
2021/08/03 11:02:48;;;;;;;2.90;1.90;;;23.50;83.30;;;;;;5099629;28;20476;-65
2021/08/03 11:05:32;;;;;;;3.33;2.10;;;23.50;83.40;;;;;;5113553;28;20469;-66
2021/08/03 11:08:43;;;;;;;1.73;1.63;;;23.50;84.70;;;;;;5112119;27;20467;-64
2021/08/03 11:11:13;;;;;;;2.17;1.90;;;23.60;87.10;;;;;;5104679;28;20525;-66
2021/08/03 11:13:45;;;;;;;1.70;1.60;;;23.60;88.00;;;;;;5110740;28;20453;-66
2021/08/03 11:16:55;;;;;;;12.50;11.47;;;23.50;90.00;;;;;;5105585;28;20537;-66
2021/08/03 11:19:34;;;;;;;14.20;12.80;;;23.60;89.00;;;;;;5104737;28;20543;-65
2021/08/03 11:22:03;;;;;;;30.40;27.43;;;23.80;86.80;;;;;;5108468;28;20549;-66
2021/08/03 11:24:44;;;;;;;26.10;23.80;;;23.80;86.40;;;;;;5106814;28;20472;-66
2021/08/03 11:27:12;;;;;;;4.83;4.10;;;23.90;86.30;;;;;;5101708;28;20954;-66
2021/08/03 11:29:41;;;;;;;4.50;3.13;;;24.00;84.40;;;;;;5113080;28;20851;-66
2021/08/03 11:32:10;;;;;;;2.80;2.60;;;24.00;83.70;;;;;;5102175;28;21004;-66
2021/08/03 11:34:42;;;;;;;1.90;1.80;;;24.10;81.20;;;;;;5100623;28;20470;-66
2021/08/03 11:40:11;;;;;;;3.03;2.73;;;24.10;80.60;;;;;;5088316;27;20969;-66
2021/08/03 11:42:41;;;;;;;3.00;2.57;;;24.00;80.00;;;;;;5112977;28;20476;-65
2021/08/03 11:45:11;;;;;;;3.10;2.80;;;24.00;80.30;;;;;;5101897;28;20475;-65
2021/08/03 11:47:44;;;;;;;2.73;2.53;;;24.10;79.80;;;;;;5100103;28;20507;-64
2021/08/03 11:50:14;;;;;;;3.00;2.30;;;24.10;79.90;;;;;;5103382;28;20465;-66
2021/08/03 11:52:41;;;;;;;3.80;2.40;;;24.20;79.60;;;;;;5107464;28;20466;-66
2021/08/03 11:55:12;;;;;;;4.73;2.70;;;24.20;79.50;;;;;;5104001;28;20510;-66
2021/08/03 11:57:41;;;;;;;2.37;2.20;;;24.30;79.60;;;;;;5099625;28;20465;-65
2021/08/03 12:00:15;;;;;;;2.53;2.33;;;24.30;79.30;;;;;;5108531;27;20496;-65
2021/08/03 12:02:43;;;;;;;4.37;2.40;;;24.40;79.00;;;;;;5103636;28;20788;-66
2021/08/03 12:05:15;;;;;;;1.60;1.50;;;24.40;77.60;;;;;;5110253;28;20521;-67
2021/08/03 12:07:48;;;;;;;2.53;2.33;;;24.30;77.30;;;;;;5113798;27;20500;-66
2021/08/03 12:10:15;;;;;;;2.47;1.50;;;24.30;77.20;;;;;;5107696;28;20465;-64
2021/08/03 12:12:44;;;;;;;3.73;2.03;;;24.30;77.20;;;;;;5105962;28;21042;-65
2021/08/03 12:15:13;;;;;;;1.70;1.60;;;24.30;76.80;;;;;;5099284;28;20461;-66
2021/08/03 12:17:40;;;;;;;1.67;1.57;;;24.20;76.90;;;;;;5099788;28;20866;-66
2021/08/03 12:20:26;;;;;;;1.73;1.63;;;24.20;76.90;;;;;;5106236;28;20861;-66
2021/08/03 12:22:53;;;;;;;2.40;2.20;;;24.10;77.00;;;;;;5106595;28;20859;-65
2021/08/03 12:25:22;;;;;;;2.60;2.40;;;24.10;77.50;;;;;;5102168;28;20542;-65
2021/08/03 12:27:49;;;;;;;3.20;2.77;;;24.20;77.50;;;;;;5099660;28;20495;-65
2021/08/03 12:30:36;;;;;;;3.67;2.50;;;24.20;77.30;;;;;;5103096;28;20534;-65
2021/08/03 12:33:04;;;;;;;2.13;1.90;;;24.20;76.90;;;;;;5106118;28;20473;-65
2021/08/03 12:35:34;;;;;;;3.93;2.30;;;24.20;76.80;;;;;;5105834;28;20537;-66
2021/08/03 12:38:15;;;;;;;2.63;2.13;;;24.20;76.00;;;;;;5098775;28;20473;-66
2021/08/03 12:40:43;;;;;;;2.97;2.77;;;24.20;76.70;;;;;;5099492;28;20465;-66
2021/08/03 12:43:10;;;;;;;2.67;2.47;;;24.30;76.70;;;;;;5104252;28;20472;-67
2021/08/03 12:45:38;;;;;;;3.53;2.70;;;24.20;76.50;;;;;;5106783;28;20468;-65
2021/08/03 12:48:08;;;;;;;2.60;2.40;;;24.20;76.10;;;;;;5101149;28;20502;-65
2021/08/03 12:50:49;;;;;;;2.77;2.27;;;24.20;75.80;;;;;;5099461;28;20541;-65
2021/08/03 12:53:27;;;;;;;2.30;2.10;;;24.20;76.30;;;;;;5100831;28;20473;-65
2021/08/03 12:55:56;;;;;;;3.10;2.30;;;24.20;76.50;;;;;;5099579;28;20864;-66
2021/08/03 12:58:38;;;;;;;2.10;2.00;;;24.20;75.40;;;;;;5106597;28;20475;-66
2021/08/03 13:01:13;;;;;;;2.20;2.03;;;24.20;74.90;;;;;;5112522;28;20468;-67
2021/08/03 13:03:40;;;;;;;1.60;1.50;;;24.20;74.00;;;;;;5099437;28;20840;-67